sensor_id;sensor_type;location;lat;lon;timestamp;temperature;humidity
78289;DHT22;67539;48.752;12.922;2024-02-21T00:02:29;5.60;99.90
78289;DHT22;67539;48.752;12.922;2024-02-21T00:04:58;5.60;99.90
78289;DHT22;67539;48.752;12.922;2024-02-21T00:07:27;5.60;99.90
78289;DHT22;67539;48.752;12.922;2024-02-21T00:09:56;5.60;99.90
78289;DHT22;67539;48.752;12.922;2024-02-21T00:12:24;5.60;99.90
78289;DHT22;67539;48.752;12.922;2024-02-21T00:14:52;5.60;99.90
78289;DHT22;67539;48.752;12.922;2024-02-21T00:17:20;5.50;99.90
78289;DHT22;67539;48.752;12.922;2024-02-21T00:19:49;5.50;99.90
78289;DHT22;67539;48.752;12.922;2024-02-21T00:22:17;5.50;99.90
78289;DHT22;67539;48.752;12.922;2024-02-21T00:24:46;5.50;99.90
78289;DHT22;67539;48.752;12.922;2024-02-21T00:27:15;5.50;99.90
78289;DHT22;67539;48.752;12.922;2024-02-21T00:29:43;5.50;99.90
78289;DHT22;67539;48.752;12.922;2024-02-21T00:32:11;5.50;99.90
78289;DHT22;67539;48.752;12.922;2024-02-21T00:34:39;5.50;99.90
78289;DHT22;67539;48.752;12.922;2024-02-21T00:37:08;5.50;99.90
78289;DHT22;67539;48.752;12.922;2024-02-21T00:39:36;5.50;99.90
78289;DHT22;67539;48.752;12.922;2024-02-21T00:42:06;5.50;99.90
78289;DHT22;67539;48.752;12.922;2024-02-21T00:44:34;5.60;99.90
78289;DHT22;67539;48.752;12.922;2024-02-21T00:47:03;5.60;99.90
78289;DHT22;67539;48.752;12.922;2024-02-21T00:49:31;5.60;99.90
78289;DHT22;67539;48.752;12.922;2024-02-21T00:51:59;5.60;99.90
78289;DHT22;67539;48.752;12.922;2024-02-21T00:54:27;5.60;99.90
78289;DHT22;67539;48.752;12.922;2024-02-21T00:57:07;5.60;99.90
78289;DHT22;67539;48.752;12.922;2024-02-21T00:59:36;5.50;99.90
78289;DHT22;67539;48.752;12.922;2024-02-21T01:02:04;5.50;99.90
78289;DHT22;67539;48.752;12.922;2024-02-21T01:04:32;5.50;99.90
78289;DHT22;67539;48.752;12.922;2024-02-21T01:07:00;5.50;99.90
78289;DHT22;67539;48.752;12.922;2024-02-21T01:09:28;5.50;99.90
78289;DHT22;67539;48.752;12.922;2024-02-21T01:11:57;5.50;99.90
78289;DHT22;67539;48.752;12.922;2024-02-21T01:14:26;5.40;99.90
78289;DHT22;67539;48.752;12.922;2024-02-21T01:16:54;5.40;99.90
78289;DHT22;67539;48.752;12.922;2024-02-21T01:19:23;5.40;99.90
78289;DHT22;67539;48.752;12.922;2024-02-21T01:21:51;5.30;99.90
78289;DHT22;67539;48.752;12.922;2024-02-21T01:24:19;5.30;99.90
78289;DHT22;67539;48.752;12.922;2024-02-21T01:26:47;5.20;99.90
78289;DHT22;67539;48.752;12.922;2024-02-21T01:29:16;5.20;99.90
78289;DHT22;67539;48.752;12.922;2024-02-21T01:31:45;5.20;99.90
78289;DHT22;67539;48.752;12.922;2024-02-21T01:34:14;5.20;99.90
78289;DHT22;67539;48.752;12.922;2024-02-21T01:36:42;5.20;99.90
78289;DHT22;67539;48.752;12.922;2024-02-21T01:39:10;5.10;99.90
78289;DHT22;67539;48.752;12.922;2024-02-21T01:41:39;5.10;99.90
78289;DHT22;67539;48.752;12.922;2024-02-21T01:44:07;5.10;99.90
78289;DHT22;67539;48.752;12.922;2024-02-21T01:46:35;5.10;99.90
78289;DHT22;67539;48.752;12.922;2024-02-21T01:49:05;5.10;99.90
78289;DHT22;67539;48.752;12.922;2024-02-21T01:51:34;5.10;99.90
78289;DHT22;67539;48.752;12.922;2024-02-21T01:54:03;5.10;99.90
78289;DHT22;67539;48.752;12.922;2024-02-21T01:56:31;5.10;99.90
78289;DHT22;67539;48.752;12.922;2024-02-21T01:58:59;5.00;99.90
78289;DHT22;67539;48.752;12.922;2024-02-21T02:01:29;5.00;99.90
78289;DHT22;67539;48.752;12.922;2024-02-21T02:03:59;5.00;99.90
78289;DHT22;67539;48.752;12.922;2024-02-21T02:06:29;5.00;99.90
78289;DHT22;67539;48.752;12.922;2024-02-21T02:08:58;5.00;99.90
78289;DHT22;67539;48.752;12.922;2024-02-21T02:11:26;5.00;99.90
78289;DHT22;67539;48.752;12.922;2024-02-21T02:13:55;5.00;99.90
78289;DHT22;67539;48.752;12.922;2024-02-21T02:16:23;5.00;99.90
78289;DHT22;67539;48.752;12.922;2024-02-21T02:18:52;5.00;99.90
78289;DHT22;67539;48.752;12.922;2024-02-21T02:21:24;5.00;99.90
78289;DHT22;67539;48.752;12.922;2024-02-21T02:23:54;5.00;99.90
78289;DHT22;67539;48.752;12.922;2024-02-21T02:26:23;5.00;99.90
78289;DHT22;67539;48.752;12.922;2024-02-21T02:28:51;5.00;99.90
78289;DHT22;67539;48.752;12.922;2024-02-21T02:31:19;5.00;99.90
78289;DHT22;67539;48.752;12.922;2024-02-21T02:33:47;4.90;99.90
78289;DHT22;67539;48.752;12.922;2024-02-21T02:36:16;5.00;99.90
78289;DHT22;67539;48.752;12.922;2024-02-21T02:38:44;4.90;99.90
78289;DHT22;67539;48.752;12.922;2024-02-21T02:41:14;4.90;99.90
78289;DHT22;67539;48.752;12.922;2024-02-21T02:43:42;5.00;99.90
78289;DHT22;67539;48.752;12.922;2024-02-21T02:46:10;5.00;99.90
78289;DHT22;67539;48.752;12.922;2024-02-21T02:48:39;5.00;99.90
78289;DHT22;67539;48.752;12.922;2024-02-21T02:51:07;5.00;99.90
78289;DHT22;67539;48.752;12.922;2024-02-21T02:53:35;5.00;99.90
78289;DHT22;67539;48.752;12.922;2024-02-21T02:56:04;5.00;99.90
78289;DHT22;67539;48.752;12.922;2024-02-21T02:58:33;4.90;99.90
78289;DHT22;67539;48.752;12.922;2024-02-21T03:01:02;4.90;99.90
78289;DHT22;67539;48.752;12.922;2024-02-21T03:03:31;4.80;99.90
78289;DHT22;67539;48.752;12.922;2024-02-21T03:05:59;4.80;99.90
78289;DHT22;67539;48.752;12.922;2024-02-21T03:08:27;4.70;99.90
78289;DHT22;67539;48.752;12.922;2024-02-21T03:10:55;4.70;99.90
78289;DHT22;67539;48.752;12.922;2024-02-21T03:13:24;4.60;99.90
78289;DHT22;67539;48.752;12.922;2024-02-21T03:15:53;4.60;99.90
78289;DHT22;67539;48.752;12.922;2024-02-21T03:18:21;4.60;99.90
78289;DHT22;67539;48.752;12.922;2024-02-21T03:20:50;4.60;99.90
78289;DHT22;67539;48.752;12.922;2024-02-21T03:23:18;4.60;99.90
78289;DHT22;67539;48.752;12.922;2024-02-21T03:25:46;4.60;99.90
78289;DHT22;67539;48.752;12.922;2024-02-21T03:28:15;4.60;99.90
78289;DHT22;67539;48.752;12.922;2024-02-21T03:30:44;4.60;99.90
78289;DHT22;67539;48.752;12.922;2024-02-21T03:33:13;4.60;99.90
78289;DHT22;67539;48.752;12.922;2024-02-21T03:35:41;4.60;99.90
78289;DHT22;67539;48.752;12.922;2024-02-21T03:38:10;4.60;99.90
78289;DHT22;67539;48.752;12.922;2024-02-21T03:40:38;4.60;99.90
78289;DHT22;67539;48.752;12.922;2024-02-21T03:43:06;4.60;99.90
78289;DHT22;67539;48.752;12.922;2024-02-21T03:45:34;4.60;99.90
78289;DHT22;67539;48.752;12.922;2024-02-21T03:48:03;4.60;99.90
78289;DHT22;67539;48.752;12.922;2024-02-21T03:50:32;4.60;99.90
78289;DHT22;67539;48.752;12.922;2024-02-21T03:53:01;4.60;99.90
78289;DHT22;67539;48.752;12.922;2024-02-21T03:55:29;4.60;99.90
78289;DHT22;67539;48.752;12.922;2024-02-21T03:57:57;4.60;99.90
78289;DHT22;67539;48.752;12.922;2024-02-21T04:00:26;4.60;99.90
78289;DHT22;67539;48.752;12.922;2024-02-21T04:02:54;4.60;99.90
78289;DHT22;67539;48.752;12.922;2024-02-21T04:05:22;4.60;99.90
78289;DHT22;67539;48.752;12.922;2024-02-21T04:07:53;4.70;99.90
78289;DHT22;67539;48.752;12.922;2024-02-21T04:10:21;4.60;99.90
78289;DHT22;67539;48.752;12.922;2024-02-21T04:12:50;4.70;99.90
78289;DHT22;67539;48.752;12.922;2024-02-21T04:15:18;4.60;99.90
78289;DHT22;67539;48.752;12.922;2024-02-21T04:17:46;4.70;99.90
78289;DHT22;67539;48.752;12.922;2024-02-21T04:20:16;4.60;99.90
78289;DHT22;67539;48.752;12.922;2024-02-21T04:22:44;4.70;99.90
78289;DHT22;67539;48.752;12.922;2024-02-21T04:25:14;4.60;99.90
78289;DHT22;67539;48.752;12.922;2024-02-21T04:27:43;4.60;99.90
78289;DHT22;67539;48.752;12.922;2024-02-21T04:30:11;4.60;99.90
78289;DHT22;67539;48.752;12.922;2024-02-21T04:32:40;4.70;99.90
78289;DHT22;67539;48.752;12.922;2024-02-21T04:35:08;4.70;99.90
78289;DHT22;67539;48.752;12.922;2024-02-21T04:37:37;4.70;99.90
78289;DHT22;67539;48.752;12.922;2024-02-21T04:40:06;4.70;99.90
78289;DHT22;67539;48.752;12.922;2024-02-21T04:42:36;4.70;99.90
78289;DHT22;67539;48.752;12.922;2024-02-21T04:45:05;4.70;99.90
78289;DHT22;67539;48.752;12.922;2024-02-21T04:47:33;4.70;99.90
78289;DHT22;67539;48.752;12.922;2024-02-21T04:50:02;4.70;99.90
78289;DHT22;67539;48.752;12.922;2024-02-21T04:52:30;4.70;99.90
78289;DHT22;67539;48.752;12.922;2024-02-21T04:54:58;4.70;99.90
78289;DHT22;67539;48.752;12.922;2024-02-21T04:57:27;4.70;99.90
78289;DHT22;67539;48.752;12.922;2024-02-21T04:59:56;4.70;99.90
78289;DHT22;67539;48.752;12.922;2024-02-21T05:02:24;4.70;99.90
78289;DHT22;67539;48.752;12.922;2024-02-21T05:04:53;4.70;99.90
78289;DHT22;67539;48.752;12.922;2024-02-21T05:07:22;4.70;99.90
78289;DHT22;67539;48.752;12.922;2024-02-21T05:09:50;4.70;99.90
78289;DHT22;67539;48.752;12.922;2024-02-21T05:12:18;4.70;99.90
78289;DHT22;67539;48.752;12.922;2024-02-21T05:14:47;4.70;99.90
78289;DHT22;67539;48.752;12.922;2024-02-21T05:17:17;4.70;99.90
78289;DHT22;67539;48.752;12.922;2024-02-21T05:19:45;4.80;99.90
78289;DHT22;67539;48.752;12.922;2024-02-21T05:22:14;4.80;99.90
78289;DHT22;67539;48.752;12.922;2024-02-21T05:24:44;4.80;99.90
78289;DHT22;67539;48.752;12.922;2024-02-21T05:27:12;4.80;99.90
78289;DHT22;67539;48.752;12.922;2024-02-21T05:29:40;4.80;99.90
78289;DHT22;67539;48.752;12.922;2024-02-21T05:32:08;4.80;99.90
78289;DHT22;67539;48.752;12.922;2024-02-21T05:34:38;4.80;99.90
78289;DHT22;67539;48.752;12.922;2024-02-21T05:37:07;4.70;99.90
78289;DHT22;67539;48.752;12.922;2024-02-21T05:39:35;4.80;99.90
78289;DHT22;67539;48.752;12.922;2024-02-21T05:42:03;4.80;99.90
78289;DHT22;67539;48.752;12.922;2024-02-21T05:44:31;4.80;99.90
78289;DHT22;67539;48.752;12.922;2024-02-21T05:47:00;4.80;99.90
78289;DHT22;67539;48.752;12.922;2024-02-21T05:49:28;4.80;99.90
78289;DHT22;67539;48.752;12.922;2024-02-21T05:51:57;4.80;99.90
78289;DHT22;67539;48.752;12.922;2024-02-21T05:54:26;4.80;99.90
78289;DHT22;67539;48.752;12.922;2024-02-21T05:56:54;4.80;99.90
78289;DHT22;67539;48.752;12.922;2024-02-21T05:59:22;4.80;99.90
78289;DHT22;67539;48.752;12.922;2024-02-21T06:01:55;4.90;99.90
78289;DHT22;67539;48.752;12.922;2024-02-21T06:04:25;4.90;99.90
78289;DHT22;67539;48.752;12.922;2024-02-21T06:06:53;4.90;99.90
78289;DHT22;67539;48.752;12.922;2024-02-21T06:09:23;4.90;99.90
78289;DHT22;67539;48.752;12.922;2024-02-21T06:11:51;4.90;99.90
78289;DHT22;67539;48.752;12.922;2024-02-21T06:14:19;4.90;99.90
78289;DHT22;67539;48.752;12.922;2024-02-21T06:16:47;4.90;99.90
78289;DHT22;67539;48.752;12.922;2024-02-21T06:19:16;5.00;99.90
78289;DHT22;67539;48.752;12.922;2024-02-21T06:21:44;4.90;99.90
78289;DHT22;67539;48.752;12.922;2024-02-21T06:24:12;5.00;99.90
78289;DHT22;67539;48.752;12.922;2024-02-21T06:26:42;5.00;99.90
78289;DHT22;67539;48.752;12.922;2024-02-21T06:29:11;5.00;99.90
78289;DHT22;67539;48.752;12.922;2024-02-21T06:31:40;5.10;99.90
78289;DHT22;67539;48.752;12.922;2024-02-21T06:34:08;5.10;99.90
78289;DHT22;67539;48.752;12.922;2024-02-21T06:36:37;5.10;99.90
78289;DHT22;67539;48.752;12.922;2024-02-21T06:39:05;5.10;99.90
78289;DHT22;67539;48.752;12.922;2024-02-21T06:41:34;5.10;99.90
78289;DHT22;67539;48.752;12.922;2024-02-21T06:44:04;5.10;99.90
78289;DHT22;67539;48.752;12.922;2024-02-21T06:46:32;5.20;99.90
78289;DHT22;67539;48.752;12.922;2024-02-21T06:49:01;5.20;99.90
78289;DHT22;67539;48.752;12.922;2024-02-21T06:51:30;5.10;99.90
78289;DHT22;67539;48.752;12.922;2024-02-21T06:53:59;5.10;99.90
78289;DHT22;67539;48.752;12.922;2024-02-21T06:56:27;5.20;99.90
78289;DHT22;67539;48.752;12.922;2024-02-21T06:58:56;5.20;99.90
78289;DHT22;67539;48.752;12.922;2024-02-21T07:01:26;5.20;99.90
78289;DHT22;67539;48.752;12.922;2024-02-21T07:03:54;5.20;99.90
78289;DHT22;67539;48.752;12.922;2024-02-21T07:06:22;5.20;99.90
78289;DHT22;67539;48.752;12.922;2024-02-21T07:08:51;5.20;99.90
78289;DHT22;67539;48.752;12.922;2024-02-21T07:11:19;5.20;99.90
78289;DHT22;67539;48.752;12.922;2024-02-21T07:13:47;5.30;99.90
78289;DHT22;67539;48.752;12.922;2024-02-21T07:16:16;5.30;99.90
78289;DHT22;67539;48.752;12.922;2024-02-21T07:18:45;5.40;99.90
78289;DHT22;67539;48.752;12.922;2024-02-21T07:21:13;5.40;99.90
78289;DHT22;67539;48.752;12.922;2024-02-21T07:23:42;5.50;99.90
78289;DHT22;67539;48.752;12.922;2024-02-21T07:26:10;5.50;99.90
78289;DHT22;67539;48.752;12.922;2024-02-21T07:28:38;5.60;99.90
78289;DHT22;67539;48.752;12.922;2024-02-21T07:31:06;5.70;99.90
78289;DHT22;67539;48.752;12.922;2024-02-21T07:33:34;5.80;99.90
78289;DHT22;67539;48.752;12.922;2024-02-21T07:36:07;5.90;99.90
78289;DHT22;67539;48.752;12.922;2024-02-21T07:38:36;5.90;99.90
78289;DHT22;67539;48.752;12.922;2024-02-21T07:41:04;6.10;99.90
78289;DHT22;67539;48.752;12.922;2024-02-21T07:43:32;6.10;99.90
78289;DHT22;67539;48.752;12.922;2024-02-21T07:46:01;6.20;99.90
78289;DHT22;67539;48.752;12.922;2024-02-21T07:48:29;6.40;99.90
78289;DHT22;67539;48.752;12.922;2024-02-21T07:51:01;6.50;99.90
78289;DHT22;67539;48.752;12.922;2024-02-21T07:53:31;6.60;99.90
78289;DHT22;67539;48.752;12.922;2024-02-21T07:56:00;6.60;99.90
78289;DHT22;67539;48.752;12.922;2024-02-21T07:58:28;6.60;99.90
78289;DHT22;67539;48.752;12.922;2024-02-21T08:00:56;6.70;99.90
78289;DHT22;67539;48.752;12.922;2024-02-21T08:03:25;6.70;99.90
78289;DHT22;67539;48.752;12.922;2024-02-21T08:05:53;6.80;99.90
78289;DHT22;67539;48.752;12.922;2024-02-21T08:08:21;6.90;99.90
78289;DHT22;67539;48.752;12.922;2024-02-21T08:10:51;6.90;99.90
78289;DHT22;67539;48.752;12.922;2024-02-21T08:13:19;7.00;99.90
78289;DHT22;67539;48.752;12.922;2024-02-21T08:15:47;7.00;99.90
78289;DHT22;67539;48.752;12.922;2024-02-21T08:18:15;7.00;99.90
78289;DHT22;67539;48.752;12.922;2024-02-21T08:20:44;7.00;99.90
78289;DHT22;67539;48.752;12.922;2024-02-21T08:23:12;7.00;99.90
78289;DHT22;67539;48.752;12.922;2024-02-21T08:25:40;7.10;99.90
78289;DHT22;67539;48.752;12.922;2024-02-21T08:28:10;7.10;99.90
78289;DHT22;67539;48.752;12.922;2024-02-21T08:30:39;7.20;99.90
78289;DHT22;67539;48.752;12.922;2024-02-21T08:33:11;7.20;99.90
78289;DHT22;67539;48.752;12.922;2024-02-21T08:35:39;7.20;99.90
78289;DHT22;67539;48.752;12.922;2024-02-21T08:38:07;7.30;99.90
78289;DHT22;67539;48.752;12.922;2024-02-21T08:40:36;7.30;99.90
78289;DHT22;67539;48.752;12.922;2024-02-21T08:43:04;7.20;99.90
78289;DHT22;67539;48.752;12.922;2024-02-21T08:45:34;7.20;99.90
78289;DHT22;67539;48.752;12.922;2024-02-21T08:48:03;7.20;99.90
78289;DHT22;67539;48.752;12.922;2024-02-21T08:50:31;7.10;99.90
78289;DHT22;67539;48.752;12.922;2024-02-21T08:52:59;7.20;99.90
78289;DHT22;67539;48.752;12.922;2024-02-21T08:55:28;7.20;99.90
78289;DHT22;67539;48.752;12.922;2024-02-21T08:57:56;7.20;99.90
78289;DHT22;67539;48.752;12.922;2024-02-21T09:00:24;7.30;99.90
78289;DHT22;67539;48.752;12.922;2024-02-21T09:02:56;7.30;99.90
78289;DHT22;67539;48.752;12.922;2024-02-21T09:05:24;7.40;99.90
78289;DHT22;67539;48.752;12.922;2024-02-21T09:07:53;7.40;99.90
78289;DHT22;67539;48.752;12.922;2024-02-21T09:10:21;7.50;99.90
78289;DHT22;67539;48.752;12.922;2024-02-21T09:12:50;7.50;99.90
78289;DHT22;67539;48.752;12.922;2024-02-21T09:15:18;7.50;99.90
78289;DHT22;67539;48.752;12.922;2024-02-21T09:17:46;7.60;99.90
78289;DHT22;67539;48.752;12.922;2024-02-21T09:20:15;7.60;99.90
78289;DHT22;67539;48.752;12.922;2024-02-21T09:22:45;7.70;99.90
78289;DHT22;67539;48.752;12.922;2024-02-21T09:25:13;7.70;99.90
78289;DHT22;67539;48.752;12.922;2024-02-21T09:27:44;7.80;99.90
78289;DHT22;67539;48.752;12.922;2024-02-21T09:30:13;7.80;99.90
78289;DHT22;67539;48.752;12.922;2024-02-21T09:32:41;7.90;99.90
78289;DHT22;67539;48.752;12.922;2024-02-21T09:35:09;7.90;99.90
78289;DHT22;67539;48.752;12.922;2024-02-21T09:37:41;8.00;99.90
78289;DHT22;67539;48.752;12.922;2024-02-21T09:40:10;8.00;99.90
78289;DHT22;67539;48.752;12.922;2024-02-21T09:42:39;8.10;99.90
78289;DHT22;67539;48.752;12.922;2024-02-21T09:45:12;8.20;99.90
78289;DHT22;67539;48.752;12.922;2024-02-21T09:47:50;8.20;99.90
78289;DHT22;67539;48.752;12.922;2024-02-21T09:50:23;8.30;99.90
78289;DHT22;67539;48.752;12.922;2024-02-21T09:52:54;8.30;99.90
78289;DHT22;67539;48.752;12.922;2024-02-21T09:55:24;8.30;99.90
78289;DHT22;67539;48.752;12.922;2024-02-21T09:57:54;8.40;99.90
78289;DHT22;67539;48.752;12.922;2024-02-21T10:00:22;8.30;99.90
78289;DHT22;67539;48.752;12.922;2024-02-21T10:02:50;8.40;99.90
78289;DHT22;67539;48.752;12.922;2024-02-21T10:05:19;8.50;99.90
78289;DHT22;67539;48.752;12.922;2024-02-21T10:07:48;8.50;99.90
78289;DHT22;67539;48.752;12.922;2024-02-21T10:10:19;8.60;99.90
78289;DHT22;67539;48.752;12.922;2024-02-21T10:12:49;8.50;99.90
78289;DHT22;67539;48.752;12.922;2024-02-21T10:15:20;8.60;99.90
78289;DHT22;67539;48.752;12.922;2024-02-21T10:17:58;8.60;99.90
78289;DHT22;67539;48.752;12.922;2024-02-21T10:20:27;8.60;99.90
78289;DHT22;67539;48.752;12.922;2024-02-21T10:23:02;8.70;99.90
78289;DHT22;67539;48.752;12.922;2024-02-21T10:25:36;8.80;99.90
78289;DHT22;67539;48.752;12.922;2024-02-21T10:28:08;8.80;99.90
78289;DHT22;67539;48.752;12.922;2024-02-21T10:30:49;8.90;99.90
78289;DHT22;67539;48.752;12.922;2024-02-21T10:33:18;9.00;99.90
78289;DHT22;67539;48.752;12.922;2024-02-21T10:35:48;9.10;99.90
78289;DHT22;67539;48.752;12.922;2024-02-21T10:38:17;9.20;99.90
78289;DHT22;67539;48.752;12.922;2024-02-21T10:40:47;9.30;99.90
78289;DHT22;67539;48.752;12.922;2024-02-21T10:43:17;9.40;99.90
78289;DHT22;67539;48.752;12.922;2024-02-21T10:45:47;9.50;99.90
78289;DHT22;67539;48.752;12.922;2024-02-21T10:48:24;9.50;99.90
78289;DHT22;67539;48.752;12.922;2024-02-21T10:50:57;9.60;99.90
78289;DHT22;67539;48.752;12.922;2024-02-21T10:53:39;9.60;99.90
78289;DHT22;67539;48.752;12.922;2024-02-21T10:56:19;9.60;99.90
78289;DHT22;67539;48.752;12.922;2024-02-21T10:58:49;9.70;99.90
78289;DHT22;67539;48.752;12.922;2024-02-21T11:01:18;9.80;99.90
78289;DHT22;67539;48.752;12.922;2024-02-21T11:03:48;9.80;99.90
78289;DHT22;67539;48.752;12.922;2024-02-21T11:06:17;9.80;99.90
78289;DHT22;67539;48.752;12.922;2024-02-21T11:08:47;9.80;99.90
78289;DHT22;67539;48.752;12.922;2024-02-21T11:11:18;9.90;99.90
78289;DHT22;67539;48.752;12.922;2024-02-21T11:14:07;9.90;99.90
78289;DHT22;67539;48.752;12.922;2024-02-21T11:16:37;10.00;99.90
78289;DHT22;67539;48.752;12.922;2024-02-21T11:19:07;10.10;99.90
78289;DHT22;67539;48.752;12.922;2024-02-21T11:21:37;10.10;99.90
78289;DHT22;67539;48.752;12.922;2024-02-21T11:24:06;10.20;99.90
78289;DHT22;67539;48.752;12.922;2024-02-21T11:26:37;10.30;99.90
78289;DHT22;67539;48.752;12.922;2024-02-21T11:29:06;10.30;99.90
78289;DHT22;67539;48.752;12.922;2024-02-21T11:31:40;10.40;99.90
78289;DHT22;67539;48.752;12.922;2024-02-21T11:34:09;10.50;99.90
78289;DHT22;67539;48.752;12.922;2024-02-21T11:36:47;10.60;99.90
78289;DHT22;67539;48.752;12.922;2024-02-21T11:39:20;10.60;99.90
78289;DHT22;67539;48.752;12.922;2024-02-21T11:42:02;10.70;99.90
78289;DHT22;67539;48.752;12.922;2024-02-21T11:44:31;10.90;99.90
78289;DHT22;67539;48.752;12.922;2024-02-21T11:46:59;11.00;99.90
78289;DHT22;67539;48.752;12.922;2024-02-21T11:49:28;11.10;99.90
78289;DHT22;67539;48.752;12.922;2024-02-21T11:51:58;11.30;99.90
78289;DHT22;67539;48.752;12.922;2024-02-21T11:54:27;11.40;99.90
78289;DHT22;67539;48.752;12.922;2024-02-21T11:56:56;11.60;99.90
78289;DHT22;67539;48.752;12.922;2024-02-21T11:59:25;11.70;99.90
78289;DHT22;67539;48.752;12.922;2024-02-21T12:01:53;11.80;99.90
78289;DHT22;67539;48.752;12.922;2024-02-21T12:04:22;11.90;99.90
78289;DHT22;67539;48.752;12.922;2024-02-21T12:06:53;12.00;99.90
78289;DHT22;67539;48.752;12.922;2024-02-21T12:09:22;12.10;99.90
78289;DHT22;67539;48.752;12.922;2024-02-21T12:11:57;12.20;99.90
78289;DHT22;67539;48.752;12.922;2024-02-21T12:14:28;12.20;99.90
78289;DHT22;67539;48.752;12.922;2024-02-21T12:16:57;12.30;99.90
78289;DHT22;67539;48.752;12.922;2024-02-21T12:19:26;12.40;99.90
78289;DHT22;67539;48.752;12.922;2024-02-21T12:21:58;12.50;99.90
78289;DHT22;67539;48.752;12.922;2024-02-21T12:24:28;12.60;99.90
78289;DHT22;67539;48.752;12.922;2024-02-21T12:26:57;12.70;99.90
78289;DHT22;67539;48.752;12.922;2024-02-21T12:29:28;12.70;99.90
78289;DHT22;67539;48.752;12.922;2024-02-21T12:31:57;12.80;99.90
78289;DHT22;67539;48.752;12.922;2024-02-21T12:34:25;12.90;99.90
78289;DHT22;67539;48.752;12.922;2024-02-21T12:37:10;13.00;99.90
78289;DHT22;67539;48.752;12.922;2024-02-21T12:39:40;13.10;99.90
78289;DHT22;67539;48.752;12.922;2024-02-21T12:42:08;13.20;99.90
78289;DHT22;67539;48.752;12.922;2024-02-21T12:44:39;13.30;99.90
78289;DHT22;67539;48.752;12.922;2024-02-21T12:47:09;13.40;99.90
78289;DHT22;67539;48.752;12.922;2024-02-21T12:49:37;13.40;99.90
78289;DHT22;67539;48.752;12.922;2024-02-21T12:52:11;13.50;99.90
78289;DHT22;67539;48.752;12.922;2024-02-21T12:54:40;13.50;99.80
78289;DHT22;67539;48.752;12.922;2024-02-21T12:57:09;13.60;99.80
78289;DHT22;67539;48.752;12.922;2024-02-21T12:59:37;13.60;99.90
78289;DHT22;67539;48.752;12.922;2024-02-21T13:02:07;13.70;99.90
78289;DHT22;67539;48.752;12.922;2024-02-21T13:04:36;13.70;99.90
78289;DHT22;67539;48.752;12.922;2024-02-21T13:07:07;13.80;99.90
78289;DHT22;67539;48.752;12.922;2024-02-21T13:09:36;13.90;99.90
78289;DHT22;67539;48.752;12.922;2024-02-21T13:12:04;13.90;99.90
78289;DHT22;67539;48.752;12.922;2024-02-21T13:14:32;13.90;99.00
78289;DHT22;67539;48.752;12.922;2024-02-21T13:17:02;13.90;99.20
78289;DHT22;67539;48.752;12.922;2024-02-21T13:19:32;14.00;99.40
78289;DHT22;67539;48.752;12.922;2024-02-21T13:22:00;14.10;99.50
78289;DHT22;67539;48.752;12.922;2024-02-21T13:24:30;14.10;99.20
78289;DHT22;67539;48.752;12.922;2024-02-21T13:26:58;14.20;98.30
78289;DHT22;67539;48.752;12.922;2024-02-21T13:29:26;14.30;99.00
78289;DHT22;67539;48.752;12.922;2024-02-21T13:31:55;14.30;99.00
78289;DHT22;67539;48.752;12.922;2024-02-21T13:34:23;14.50;98.30
78289;DHT22;67539;48.752;12.922;2024-02-21T13:36:54;14.60;98.20
78289;DHT22;67539;48.752;12.922;2024-02-21T13:39:22;14.70;97.60
78289;DHT22;67539;48.752;12.922;2024-02-21T13:41:50;14.80;97.40
78289;DHT22;67539;48.752;12.922;2024-02-21T13:44:18;14.80;97.60
78289;DHT22;67539;48.752;12.922;2024-02-21T13:46:46;14.80;97.70
78289;DHT22;67539;48.752;12.922;2024-02-21T13:49:15;14.80;96.60
78289;DHT22;67539;48.752;12.922;2024-02-21T13:51:44;14.90;97.50
78289;DHT22;67539;48.752;12.922;2024-02-21T13:54:13;15.00;97.60
78289;DHT22;67539;48.752;12.922;2024-02-21T13:56:44;15.10;97.50
78289;DHT22;67539;48.752;12.922;2024-02-21T13:59:12;15.20;97.00
78289;DHT22;67539;48.752;12.922;2024-02-21T14:01:41;15.30;97.00
78289;DHT22;67539;48.752;12.922;2024-02-21T14:04:09;15.40;96.40
78289;DHT22;67539;48.752;12.922;2024-02-21T14:06:38;15.40;96.00
78289;DHT22;67539;48.752;12.922;2024-02-21T14:09:10;15.40;95.60
78289;DHT22;67539;48.752;12.922;2024-02-21T14:11:39;15.40;96.20
78289;DHT22;67539;48.752;12.922;2024-02-21T14:14:09;15.50;95.90
78289;DHT22;67539;48.752;12.922;2024-02-21T14:16:37;15.60;96.00
78289;DHT22;67539;48.752;12.922;2024-02-21T14:19:05;15.60;95.50
78289;DHT22;67539;48.752;12.922;2024-02-21T14:21:35;15.70;95.10
78289;DHT22;67539;48.752;12.922;2024-02-21T14:24:04;15.70;95.00
78289;DHT22;67539;48.752;12.922;2024-02-21T14:26:32;15.70;95.20
78289;DHT22;67539;48.752;12.922;2024-02-21T14:29:04;15.70;95.30
78289;DHT22;67539;48.752;12.922;2024-02-21T14:31:32;15.70;95.10
78289;DHT22;67539;48.752;12.922;2024-02-21T14:34:00;15.70;94.70
78289;DHT22;67539;48.752;12.922;2024-02-21T14:36:29;15.70;94.90
78289;DHT22;67539;48.752;12.922;2024-02-21T14:38:57;15.60;95.10
78289;DHT22;67539;48.752;12.922;2024-02-21T14:41:26;15.50;95.10
78289;DHT22;67539;48.752;12.922;2024-02-21T14:43:54;15.40;94.10
78289;DHT22;67539;48.752;12.922;2024-02-21T14:46:25;15.30;94.80
78289;DHT22;67539;48.752;12.922;2024-02-21T14:48:55;15.30;94.20
78289;DHT22;67539;48.752;12.922;2024-02-21T14:51:23;15.20;95.00
78289;DHT22;67539;48.752;12.922;2024-02-21T14:53:51;15.10;95.50
78289;DHT22;67539;48.752;12.922;2024-02-21T14:56:21;15.00;94.90
78289;DHT22;67539;48.752;12.922;2024-02-21T14:58:50;14.90;95.00
78289;DHT22;67539;48.752;12.922;2024-02-21T15:01:24;14.80;95.30
78289;DHT22;67539;48.752;12.922;2024-02-21T15:03:52;14.70;95.30
78289;DHT22;67539;48.752;12.922;2024-02-21T15:06:21;14.70;95.50
78289;DHT22;67539;48.752;12.922;2024-02-21T15:08:49;14.60;96.10
78289;DHT22;67539;48.752;12.922;2024-02-21T15:11:18;14.60;95.40
78289;DHT22;67539;48.752;12.922;2024-02-21T15:13:47;14.40;96.00
78289;DHT22;67539;48.752;12.922;2024-02-21T15:16:15;14.40;96.30
78289;DHT22;67539;48.752;12.922;2024-02-21T15:18:45;14.30;96.70
78289;DHT22;67539;48.752;12.922;2024-02-21T15:21:13;14.20;96.60
78289;DHT22;67539;48.752;12.922;2024-02-21T15:23:42;14.10;96.60
78289;DHT22;67539;48.752;12.922;2024-02-21T15:26:10;14.00;96.90
78289;DHT22;67539;48.752;12.922;2024-02-21T15:28:40;14.00;97.10
78289;DHT22;67539;48.752;12.922;2024-02-21T15:31:08;13.90;97.30
78289;DHT22;67539;48.752;12.922;2024-02-21T15:33:37;13.80;97.30
78289;DHT22;67539;48.752;12.922;2024-02-21T15:36:07;13.70;97.00
78289;DHT22;67539;48.752;12.922;2024-02-21T15:38:35;13.60;97.50
78289;DHT22;67539;48.752;12.922;2024-02-21T15:41:03;13.50;97.70